createdAt,value
2023-12-14T00:02:29.711Z,12.25
2023-12-14T00:05:32.444Z,11.77
2023-12-14T00:08:35.166Z,13.27
2023-12-14T00:11:41.325Z,11.25
2023-12-14T00:14:44.057Z,12.87
2023-12-14T00:17:46.743Z,12.38
2023-12-14T00:20:49.546Z,11.93
2023-12-14T00:23:52.240Z,13.50
2023-12-14T00:26:54.910Z,12.73
2023-12-14T00:29:57.554Z,10.23
2023-12-14T00:33:00.251Z,13.30
2023-12-14T00:36:02.983Z,14.70
2023-12-14T00:39:05.700Z,14.90
2023-12-14T00:42:08.411Z,14.60
2023-12-14T00:45:11.566Z,19.47
2023-12-14T00:48:14.392Z,27.10
2023-12-14T00:51:17.300Z,33.83
2023-12-14T00:54:20.071Z,17.30
2023-12-14T00:57:22.900Z,17.00
2023-12-14T01:00:25.902Z,22.23
2023-12-14T01:03:28.748Z,13.15
2023-12-14T01:06:31.815Z,13.60
2023-12-14T01:09:34.750Z,11.95
2023-12-14T01:12:38.268Z,12.13
2023-12-14T01:15:41.113Z,10.60
2023-12-14T01:18:43.857Z,9.85
2023-12-14T01:21:46.687Z,11.40
2023-12-14T01:24:49.375Z,9.95
2023-12-14T01:27:52.074Z,13.25
2023-12-14T01:30:54.784Z,10.93
2023-12-14T01:33:57.779Z,10.07
2023-12-14T01:37:00.554Z,10.43
2023-12-14T01:40:03.479Z,9.43
2023-12-14T01:43:12.289Z,7.88
2023-12-14T01:46:16.545Z,7.93
2023-12-14T01:49:19.450Z,8.38
2023-12-14T01:52:22.192Z,6.60
2023-12-14T01:55:24.998Z,8.07
2023-12-14T01:58:27.964Z,4.47
2023-12-14T02:01:43.382Z,3.17
2023-12-14T02:04:46.606Z,4.05
2023-12-14T02:07:49.817Z,3.25
2023-12-14T02:10:52.542Z,3.50
2023-12-14T02:13:55.345Z,3.60
2023-12-14T02:16:58.174Z,3.03
2023-12-14T02:20:01.931Z,4.45
2023-12-14T02:23:04.832Z,3.67
2023-12-14T02:26:07.522Z,1.40
2023-12-14T02:29:10.268Z,2.33
2023-12-14T02:32:13.050Z,2.67
2023-12-14T02:35:15.825Z,4.65
2023-12-14T02:38:18.581Z,6.10
2023-12-14T02:41:21.351Z,8.45
2023-12-14T02:44:24.009Z,8.82
2023-12-14T02:47:27.026Z,10.80
2023-12-14T02:50:29.711Z,9.88
2023-12-14T02:53:32.529Z,11.65
2023-12-14T02:56:35.155Z,11.20
2023-12-14T02:59:37.865Z,9.10
2023-12-14T03:02:40.596Z,9.97
2023-12-14T03:05:43.310Z,10.77
2023-12-14T03:08:46.016Z,9.68
2023-12-14T03:11:49.554Z,10.07
2023-12-14T03:14:52.333Z,11.18
2023-12-14T03:17:55.023Z,9.60
2023-12-14T03:20:57.671Z,9.98
2023-12-14T03:24:00.351Z,11.10
2023-12-14T03:27:04.018Z,8.32
2023-12-14T03:30:09.436Z,13.32
2023-12-14T03:33:12.423Z,18.77
2023-12-14T03:36:15.170Z,14.55
2023-12-14T03:39:17.923Z,11.88
2023-12-14T03:42:20.697Z,13.90
2023-12-14T03:45:23.498Z,9.73
2023-12-14T03:48:26.240Z,8.93
2023-12-14T03:51:29.817Z,7.93
2023-12-14T03:54:32.531Z,8.90
2023-12-14T03:57:35.179Z,8.18
2023-12-14T04:00:37.874Z,7.18
2023-12-14T04:03:40.499Z,9.33
2023-12-14T04:06:43.597Z,10.35
2023-12-14T04:09:47.039Z,10.65
2023-12-14T04:12:49.807Z,9.82
2023-12-14T04:15:52.454Z,13.68
2023-12-14T04:18:55.282Z,12.40
2023-12-14T04:21:58.091Z,8.82
2023-12-14T04:25:00.792Z,8.02
2023-12-14T04:28:03.719Z,8.48
2023-12-14T04:31:07.278Z,6.00
2023-12-14T04:34:13.387Z,7.17
2023-12-14T04:37:16.038Z,6.07
2023-12-14T04:40:18.894Z,8.13
2023-12-14T04:43:21.656Z,8.88
2023-12-14T04:46:24.359Z,7.63
2023-12-14T04:49:27.004Z,6.73
2023-12-14T04:52:29.889Z,5.95
2023-12-14T04:55:32.659Z,7.68
2023-12-14T04:58:35.687Z,7.70
2023-12-14T05:01:38.478Z,8.07
2023-12-14T05:04:41.294Z,6.37
2023-12-14T05:07:44.063Z,6.57
2023-12-14T05:10:46.794Z,6.95
2023-12-14T05:13:49.515Z,7.65
2023-12-14T05:16:52.765Z,7.22
2023-12-14T05:19:55.535Z,8.40
2023-12-14T05:22:58.247Z,7.55
2023-12-14T05:26:01.080Z,9.57
2023-12-14T05:29:03.800Z,6.28
2023-12-14T05:32:06.776Z,6.55
2023-12-14T05:35:11.123Z,11.00
2023-12-14T05:38:14.250Z,8.10
2023-12-14T05:41:17.351Z,7.35
2023-12-14T05:44:20.020Z,8.73
2023-12-14T05:47:22.751Z,9.55
2023-12-14T05:50:25.404Z,10.57
2023-12-14T05:53:28.610Z,15.32
2023-12-14T05:56:31.388Z,13.32
2023-12-14T05:59:34.358Z,9.15
2023-12-14T06:02:38.879Z,13.52
2023-12-14T06:05:42.209Z,11.13
2023-12-14T06:08:45.789Z,8.27
2023-12-14T06:11:49.189Z,9.35
2023-12-14T06:14:52.011Z,9.27
2023-12-14T06:17:54.786Z,12.00
2023-12-14T06:20:58.000Z,16.03
2023-12-14T06:24:00.962Z,22.52
2023-12-14T06:27:03.910Z,26.85
2023-12-14T06:30:07.240Z,47.78
2023-12-14T06:33:10.296Z,68.97
2023-12-14T06:36:13.556Z,72.90
2023-12-14T06:39:20.612Z,73.93
2023-12-14T06:42:23.694Z,51.78
2023-12-14T06:45:26.516Z,34.78
2023-12-14T06:48:29.543Z,25.23
2023-12-14T06:51:32.433Z,17.00
2023-12-14T06:54:35.225Z,10.55
2023-12-14T06:57:37.916Z,10.50
2023-12-14T07:00:40.839Z,11.38
2023-12-14T07:03:45.836Z,12.95
2023-12-14T07:06:55.133Z,14.60
2023-12-14T07:09:57.916Z,13.60
2023-12-14T07:13:00.858Z,16.80
2023-12-14T07:16:09.574Z,15.25
2023-12-14T07:19:13.067Z,11.68
2023-12-14T07:22:15.778Z,11.10
2023-12-14T07:25:18.646Z,17.15
2023-12-14T07:28:21.482Z,20.60
2023-12-14T07:31:24.357Z,19.30
2023-12-14T07:34:29.485Z,26.58
2023-12-14T07:37:32.271Z,20.23
2023-12-14T07:40:35.050Z,24.58
2023-12-14T07:43:37.817Z,20.95
2023-12-14T07:46:43.786Z,13.88
2023-12-14T07:49:49.656Z,11.48
2023-12-14T07:52:52.671Z,12.43
2023-12-14T07:55:55.449Z,14.13
2023-12-14T07:58:58.239Z,17.77
2023-12-14T08:02:01.126Z,18.33
2023-12-14T08:05:04.452Z,17.98
2023-12-14T08:08:07.392Z,16.33
2023-12-14T08:11:10.163Z,18.40
2023-12-14T08:14:13.175Z,20.52
2023-12-14T08:17:16.129Z,20.95
2023-12-14T08:20:19.027Z,23.20
2023-12-14T08:23:21.865Z,19.53
2023-12-14T08:26:24.873Z,19.27
2023-12-14T08:29:28.144Z,11.65
2023-12-14T08:32:30.875Z,10.45
2023-12-14T08:35:33.797Z,12.52
2023-12-14T08:38:36.466Z,10.20
2023-12-14T08:41:39.272Z,16.33
2023-12-14T08:44:42.136Z,18.13
2023-12-14T08:47:45.056Z,19.23
2023-12-14T08:50:47.896Z,19.48
2023-12-14T08:53:50.598Z,15.80
2023-12-14T08:56:54.478Z,16.70
2023-12-14T08:59:57.268Z,24.05
2023-12-14T09:03:00.271Z,19.17
2023-12-14T09:06:06.668Z,17.23
2023-12-14T09:09:09.659Z,20.23
2023-12-14T09:12:13.572Z,16.27
2023-12-14T09:15:17.039Z,15.65
2023-12-14T09:18:19.997Z,17.48
2023-12-14T09:21:30.283Z,16.48
2023-12-14T09:24:36.811Z,15.47
2023-12-14T09:27:40.181Z,14.55
2023-12-14T09:30:43.744Z,13.38
2023-12-14T09:33:46.616Z,12.88
2023-12-14T09:36:49.454Z,12.45
2023-12-14T09:39:52.424Z,15.40
2023-12-14T09:42:56.782Z,14.93
2023-12-14T09:46:00.477Z,13.93
2023-12-14T09:49:05.279Z,13.40
2023-12-14T09:52:08.189Z,12.77
2023-12-14T09:55:10.867Z,11.67
2023-12-14T09:58:14.305Z,9.18
2023-12-14T10:01:28.089Z,12.02
2023-12-14T10:04:36.975Z,11.43
2023-12-14T10:07:46.886Z,13.10
2023-12-14T10:10:54.551Z,10.30
2023-12-14T10:13:57.944Z,10.57
2023-12-14T10:17:25.993Z,12.98
2023-12-14T10:20:29.261Z,13.57
2023-12-14T10:23:32.430Z,14.88
2023-12-14T10:26:35.564Z,13.10
2023-12-14T10:29:40.714Z,11.70
2023-12-14T10:32:43.998Z,13.30
2023-12-14T10:35:48.672Z,12.23
2023-12-14T10:38:55.560Z,15.93
2023-12-14T10:42:07.921Z,13.00
2023-12-14T10:45:23.138Z,12.15
2023-12-14T10:48:30.820Z,10.25
2023-12-14T10:51:36.298Z,10.45
2023-12-14T10:54:40.843Z,11.10
2023-12-14T10:57:44.970Z,11.47
2023-12-14T11:01:04.965Z,13.18
2023-12-14T11:04:14.471Z,15.40
2023-12-14T11:07:18.024Z,14.85
2023-12-14T11:10:29.237Z,13.68
2023-12-14T11:13:34.407Z,15.77
2023-12-14T11:16:38.939Z,11.18
2023-12-14T11:19:42.245Z,9.93
2023-12-14T11:22:46.264Z,10.35
2023-12-14T11:25:56.807Z,11.00
2023-12-14T11:29:03.226Z,10.23
2023-12-14T11:32:09.653Z,10.95
2023-12-14T11:35:14.059Z,9.13
2023-12-14T11:38:17.248Z,9.07
2023-12-14T11:41:21.499Z,9.50
2023-12-14T11:44:26.817Z,9.77
2023-12-14T11:47:30.223Z,8.00
2023-12-14T11:50:36.556Z,8.43
2023-12-14T11:53:43.820Z,9.00
2023-12-14T11:56:51.619Z,8.93
2023-12-14T11:59:54.898Z,8.07
2023-12-14T12:03:23.638Z,9.00
2023-12-14T12:06:32.027Z,8.00
2023-12-14T12:09:44.449Z,9.27
2023-12-14T12:12:47.480Z,8.85
2023-12-14T12:15:50.966Z,8.57
2023-12-14T12:18:54.409Z,8.70
2023-12-14T12:21:57.595Z,10.55
2023-12-14T12:25:08.814Z,8.63
2023-12-14T12:28:18.288Z,8.15
2023-12-14T12:31:21.341Z,9.37
2023-12-14T12:34:24.716Z,9.18
2023-12-14T12:37:27.901Z,10.95
2023-12-14T12:40:34.762Z,9.32
2023-12-14T12:43:37.797Z,9.38
2023-12-14T12:49:45.265Z,7.20
2023-12-14T12:52:50.623Z,8.27
2023-12-14T12:55:54.134Z,8.52
2023-12-14T12:58:57.605Z,8.70
2023-12-14T13:02:00.964Z,8.57
2023-12-14T13:05:05.961Z,7.50
2023-12-14T13:08:09.361Z,8.60
2023-12-14T13:11:12.864Z,8.70
2023-12-14T13:14:16.175Z,9.43
2023-12-14T13:17:19.703Z,11.67
2023-12-14T13:20:23.183Z,10.07
2023-12-14T13:23:26.491Z,11.15
2023-12-14T13:26:30.152Z,13.48
2023-12-14T13:29:35.773Z,10.68
2023-12-14T13:32:38.805Z,10.90
2023-12-14T13:35:41.936Z,12.88
2023-12-14T13:38:45.601Z,10.95
2023-12-14T13:41:50.772Z,12.38
2023-12-14T13:44:54.023Z,12.20
2023-12-14T13:47:56.774Z,11.27
2023-12-14T13:50:59.898Z,12.77
2023-12-14T13:54:03.192Z,10.88
2023-12-14T13:57:06.046Z,10.68
2023-12-14T14:00:10.496Z,13.23
2023-12-14T14:03:14.895Z,11.00
2023-12-14T14:06:18.240Z,11.57
2023-12-14T14:09:22.427Z,10.27
2023-12-14T14:12:25.579Z,14.10
2023-12-14T14:15:29.303Z,14.85
2023-12-14T14:18:32.823Z,17.70
2023-12-14T14:21:35.943Z,21.48
2023-12-14T14:24:38.783Z,18.00
2023-12-14T14:27:42.213Z,20.42
2023-12-14T14:30:44.953Z,17.65
2023-12-14T14:33:49.704Z,19.67
2023-12-14T14:36:52.566Z,18.25
2023-12-14T14:39:55.373Z,17.35
2023-12-14T14:42:58.185Z,19.83
2023-12-14T14:46:01.541Z,15.82
2023-12-14T14:49:04.340Z,17.53
2023-12-14T14:52:08.207Z,12.10
2023-12-14T14:55:11.001Z,16.42
2023-12-14T14:58:14.397Z,13.98
2023-12-14T15:01:17.135Z,15.02
2023-12-14T15:04:20.160Z,14.23
2023-12-14T15:07:23.620Z,15.73
2023-12-14T15:10:26.624Z,17.27
2023-12-14T15:13:30.691Z,27.15
2023-12-14T15:16:33.733Z,27.50
2023-12-14T15:19:36.499Z,29.00
2023-12-14T15:22:39.604Z,23.33
2023-12-14T15:25:42.614Z,27.08
2023-12-14T15:28:45.627Z,35.70
2023-12-14T15:31:48.565Z,49.08
2023-12-14T15:34:51.366Z,46.23
2023-12-14T15:37:54.079Z,46.70
2023-12-14T15:40:56.843Z,34.72
2023-12-14T15:43:59.768Z,31.50
2023-12-14T15:47:02.609Z,27.40
2023-12-14T15:50:06.154Z,30.37
2023-12-14T15:53:12.185Z,34.58
2023-12-14T15:56:15.985Z,38.05
2023-12-14T15:59:18.864Z,38.28
2023-12-14T16:02:22.126Z,46.20
2023-12-14T16:05:25.188Z,40.10
2023-12-14T16:08:28.146Z,42.40
2023-12-14T16:11:31.105Z,53.45
2023-12-14T16:14:33.908Z,51.60
2023-12-14T16:17:36.839Z,55.88
2023-12-14T16:20:48.724Z,71.70
2023-12-14T16:23:51.608Z,75.50
2023-12-14T16:26:58.792Z,78.47
2023-12-14T16:30:02.281Z,72.55
2023-12-14T16:33:05.464Z,70.05
2023-12-14T16:36:13.266Z,71.57
2023-12-14T16:39:16.117Z,66.38
2023-12-14T16:42:18.903Z,54.72
2023-12-14T16:45:21.674Z,55.55
2023-12-14T16:51:42.092Z,48.90
2023-12-14T16:54:46.397Z,46.17
2023-12-14T16:57:49.186Z,45.60
2023-12-14T17:00:54.826Z,36.90
2023-12-14T17:03:58.234Z,30.40
2023-12-14T17:07:00.993Z,32.30
2023-12-14T17:10:03.958Z,29.42
2023-12-14T17:13:06.761Z,28.38
2023-12-14T17:16:14.163Z,29.95
2023-12-14T17:19:17.206Z,27.52
2023-12-14T17:22:20.023Z,33.07
2023-12-14T17:25:22.810Z,28.02
2023-12-14T17:28:25.747Z,28.80
2023-12-14T17:31:28.591Z,27.00
2023-12-14T17:34:31.442Z,31.67
2023-12-14T17:37:34.491Z,28.23
2023-12-14T17:40:37.492Z,26.23
2023-12-14T17:43:40.714Z,24.15
2023-12-14T17:46:44.049Z,23.75
2023-12-14T17:49:46.792Z,22.08
2023-12-14T17:52:49.594Z,22.07
2023-12-14T17:55:52.355Z,18.13
2023-12-14T17:58:55.106Z,16.13
2023-12-14T18:01:58.868Z,16.17
2023-12-14T18:05:01.777Z,15.68
2023-12-14T18:08:06.301Z,19.20
2023-12-14T18:11:09.051Z,16.38
2023-12-14T18:14:11.823Z,22.35
2023-12-14T18:17:15.939Z,17.92
2023-12-14T18:20:18.872Z,19.23
2023-12-14T18:23:22.082Z,18.80
2023-12-14T18:26:24.929Z,19.30
2023-12-14T18:29:27.862Z,16.00
2023-12-14T18:32:30.790Z,15.63
2023-12-14T18:35:33.740Z,17.45
2023-12-14T18:38:38.661Z,16.13
2023-12-14T18:41:41.545Z,16.70
2023-12-14T18:44:44.285Z,17.02
2023-12-14T18:47:47.291Z,18.55
2023-12-14T18:50:50.116Z,17.05
2023-12-14T18:53:52.817Z,20.13
2023-12-14T18:56:55.938Z,23.45
2023-12-14T18:59:58.680Z,29.00
2023-12-14T19:03:03.687Z,32.00
2023-12-14T19:06:10.605Z,30.33
2023-12-14T19:09:14.151Z,39.70
2023-12-14T19:12:16.836Z,46.50
2023-12-14T19:15:19.554Z,55.03
2023-12-14T19:18:22.619Z,64.18
2023-12-14T19:21:25.673Z,54.75
2023-12-14T19:24:28.375Z,48.63
2023-12-14T19:27:31.057Z,51.95
2023-12-14T19:30:33.777Z,36.58
2023-12-14T19:33:36.931Z,33.92
2023-12-14T19:36:40.095Z,31.70
2023-12-14T19:39:43.304Z,31.27
2023-12-14T19:42:46.545Z,32.25
2023-12-14T19:45:49.645Z,45.85
2023-12-14T19:48:52.846Z,45.88
2023-12-14T19:51:55.804Z,41.08
2023-12-14T19:54:58.968Z,41.97
2023-12-14T19:58:02.050Z,38.88
2023-12-14T20:01:05.210Z,42.83
2023-12-14T20:04:10.347Z,46.47
2023-12-14T20:07:13.742Z,40.88
2023-12-14T20:10:16.810Z,35.23
2023-12-14T20:13:20.041Z,32.00
2023-12-14T20:16:23.001Z,33.20
2023-12-14T20:19:26.083Z,33.38
2023-12-14T20:22:30.797Z,31.10
2023-12-14T20:25:34.056Z,31.80
2023-12-14T20:28:37.195Z,36.55
2023-12-14T20:31:40.345Z,41.00
2023-12-14T20:34:43.316Z,39.65
2023-12-14T20:37:47.416Z,45.50
2023-12-14T20:40:50.154Z,55.00
2023-12-14T20:43:53.132Z,52.33
2023-12-14T20:46:56.413Z,47.40
2023-12-14T20:49:59.404Z,44.33
2023-12-14T20:53:02.587Z,48.90
2023-12-14T20:56:05.771Z,40.37
2023-12-14T20:59:08.486Z,43.20
2023-12-14T21:02:11.217Z,42.58
2023-12-14T21:05:14.013Z,36.83
2023-12-14T21:08:17.739Z,40.35
2023-12-14T21:11:21.449Z,40.30
2023-12-14T21:14:24.529Z,40.20
2023-12-14T21:17:27.395Z,46.65
2023-12-14T21:20:30.411Z,45.50
2023-12-14T21:23:33.458Z,39.85
2023-12-14T21:26:47.941Z,39.57
2023-12-14T21:29:50.640Z,44.72
2023-12-14T21:32:53.373Z,39.63
2023-12-14T21:35:56.205Z,37.83
2023-12-14T21:38:58.853Z,38.03
2023-12-14T21:42:01.579Z,37.43
2023-12-14T21:45:04.809Z,37.47
2023-12-14T21:48:07.904Z,29.27
2023-12-14T21:51:10.653Z,27.70
2023-12-14T21:54:13.991Z,31.85
2023-12-14T21:57:17.108Z,31.80
2023-12-14T22:00:20.691Z,26.38
2023-12-14T22:03:27.001Z,29.05
2023-12-14T22:06:32.803Z,27.02
2023-12-14T22:09:36.015Z,27.10
2023-12-14T22:12:38.696Z,27.87
2023-12-14T22:15:41.505Z,33.47
2023-12-14T22:18:44.353Z,36.47
2023-12-14T22:21:47.163Z,51.17
2023-12-14T22:24:49.873Z,53.67
2023-12-14T22:27:52.566Z,68.33
2023-12-14T22:30:55.280Z,58.72
2023-12-14T22:33:58.040Z,57.38
2023-12-14T22:37:00.743Z,65.97
2023-12-14T22:40:04.801Z,69.65
2023-12-14T22:43:07.786Z,60.70
2023-12-14T22:46:10.864Z,59.97
2023-12-14T22:49:14.179Z,60.47
2023-12-14T22:52:16.954Z,52.55
2023-12-14T22:55:19.679Z,46.60
2023-12-14T22:58:22.542Z,41.63
2023-12-14T23:01:37.947Z,40.17
2023-12-14T23:04:41.916Z,36.53
2023-12-14T23:07:44.876Z,28.17
2023-12-14T23:10:47.841Z,34.60
2023-12-14T23:13:51.005Z,38.17
2023-12-14T23:16:53.843Z,37.00
2023-12-14T23:19:56.669Z,39.22
2023-12-14T23:23:01.283Z,34.08
2023-12-14T23:26:04.648Z,35.92
2023-12-14T23:29:07.784Z,27.33
2023-12-14T23:32:10.714Z,27.90
2023-12-14T23:35:13.668Z,30.70
2023-12-14T23:38:16.836Z,30.90
2023-12-14T23:41:19.872Z,35.92
2023-12-14T23:44:23.114Z,31.93
2023-12-14T23:47:26.393Z,33.38
2023-12-14T23:50:29.433Z,33.15
2023-12-14T23:53:32.339Z,30.52
2023-12-14T23:56:35.496Z,37.75
2023-12-14T23:59:38.393Z,32.23
